createdAt,value
2018-05-04T00:00:34.709Z,99.90
2018-05-04T00:03:02.423Z,99.90
2018-05-04T00:05:30.172Z,99.90
2018-05-04T00:07:57.908Z,98.40
2018-05-04T00:10:25.683Z,98.90
2018-05-04T00:12:53.410Z,97.60
2018-05-04T00:15:21.134Z,97.60
2018-05-04T00:17:49.647Z,97.20
2018-05-04T00:20:17.393Z,97.20
2018-05-04T00:22:45.905Z,99.40
2018-05-04T00:25:13.658Z,99.40
2018-05-04T00:27:41.446Z,99.90
2018-05-04T00:30:09.170Z,99.90
2018-05-04T00:32:36.919Z,99.90
2018-05-04T00:35:05.416Z,99.90
2018-05-04T00:37:33.207Z,99.90
2018-05-04T00:40:00.928Z,99.90
2018-05-04T00:42:28.715Z,99.90
2018-05-04T00:44:56.444Z,99.90
2018-05-04T00:47:24.230Z,99.90
2018-05-04T00:49:51.997Z,99.90
2018-05-04T00:52:19.736Z,99.90
2018-05-04T00:54:47.483Z,99.90
2018-05-04T00:57:15.231Z,99.90
2018-05-04T00:59:43.776Z,99.90
2018-05-04T01:02:11.500Z,99.90
2018-05-04T01:04:39.258Z,99.90
2018-05-04T01:07:06.989Z,99.90
2018-05-04T01:09:34.814Z,99.90
2018-05-04T01:12:02.614Z,99.90
2018-05-04T01:14:30.399Z,99.90
2018-05-04T01:16:58.895Z,99.90
2018-05-04T01:19:26.630Z,99.90
2018-05-04T01:21:55.156Z,99.90
2018-05-04T01:24:22.927Z,99.90
2018-05-04T01:26:50.667Z,99.90
2018-05-04T01:29:18.389Z,99.90
2018-05-04T01:31:46.936Z,99.90
2018-05-04T01:34:14.656Z,99.90
2018-05-04T01:36:42.457Z,99.90
2018-05-04T01:39:10.179Z,99.90
2018-05-04T01:41:37.938Z,99.90
2018-05-04T01:44:05.657Z,99.90
2018-05-04T01:46:33.456Z,99.90
2018-05-04T01:49:01.941Z,99.90
2018-05-04T01:51:29.666Z,99.90
2018-05-04T01:53:57.417Z,99.90
2018-05-04T01:56:25.156Z,99.90
2018-05-04T01:58:52.897Z,99.90
2018-05-04T02:01:20.630Z,99.90
2018-05-04T02:03:49.148Z,99.90
2018-05-04T02:06:16.871Z,99.90
2018-05-04T02:08:45.433Z,99.90
2018-05-04T02:11:13.154Z,99.90
2018-05-04T02:13:40.903Z,99.90
2018-05-04T02:16:08.656Z,99.90
2018-05-04T02:18:36.374Z,99.90
2018-05-04T02:21:04.200Z,99.90
2018-05-04T02:23:31.919Z,99.90
2018-05-04T02:26:00.434Z,99.90
2018-05-04T02:28:28.153Z,99.90
2018-05-04T02:30:56.692Z,99.90
2018-05-04T02:33:24.411Z,99.90
2018-05-04T02:35:52.343Z,99.90
2018-05-04T02:38:20.061Z,99.90
2018-05-04T02:40:47.820Z,99.90
2018-05-04T02:43:15.570Z,99.90
2018-05-04T02:45:43.298Z,99.90
2018-05-04T02:48:11.046Z,99.90
2018-05-04T02:50:38.768Z,99.90
2018-05-04T02:53:06.516Z,99.90
2018-05-04T02:55:34.237Z,99.90
2018-05-04T02:58:02.795Z,99.90
2018-05-04T03:00:30.518Z,99.90
2018-05-04T03:02:58.267Z,99.90
2018-05-04T03:05:26.764Z,99.90
2018-05-04T03:07:54.536Z,99.90
2018-05-04T03:10:22.255Z,99.90
2018-05-04T03:12:50.792Z,99.90
2018-05-04T03:15:19.412Z,99.90
2018-05-04T03:17:47.908Z,99.90
2018-05-04T03:20:16.417Z,99.90
2018-05-04T03:22:44.134Z,99.90
2018-05-04T03:25:12.639Z,99.90
2018-05-04T03:27:40.356Z,99.90
2018-05-04T03:30:08.105Z,99.90
2018-05-04T03:32:35.827Z,99.90
2018-05-04T03:35:03.608Z,99.90
2018-05-04T03:37:31.315Z,99.90
2018-05-04T03:39:59.059Z,99.90
2018-05-04T03:42:26.787Z,98.80
2018-05-04T03:44:54.506Z,98.60
2018-05-04T03:47:23.032Z,97.80
2018-05-04T03:49:50.740Z,97.80
2018-05-04T03:52:19.255Z,96.50
2018-05-04T03:54:46.991Z,96.50
2018-05-04T03:57:27.229Z,95.30
2018-05-04T04:00:06.752Z,95.20
2018-05-04T04:02:46.423Z,94.20
2018-05-04T04:05:14.899Z,92.70
2018-05-04T04:07:43.472Z,91.70
2018-05-04T04:10:11.978Z,89.50
2018-05-04T04:12:39.829Z,89.60
2018-05-04T04:15:07.552Z,89.30
2018-05-04T04:17:35.267Z,84.00
2018-05-04T04:20:03.033Z,85.50
2018-05-04T04:22:30.745Z,86.00
2018-05-04T04:24:58.517Z,87.90
2018-05-04T04:27:26.237Z,90.20
2018-05-04T04:29:53.987Z,90.20
2018-05-04T04:32:21.724Z,90.20
2018-05-04T04:34:49.480Z,89.90
2018-05-04T04:37:17.961Z,88.00
2018-05-04T04:39:46.463Z,84.40
2018-05-04T04:42:14.176Z,84.30
2018-05-04T04:44:41.949Z,82.10
2018-05-04T04:47:10.435Z,80.10
2018-05-04T04:49:38.916Z,79.50
2018-05-04T04:52:07.431Z,76.70
2018-05-04T04:54:35.155Z,76.70
2018-05-04T04:57:03.665Z,74.40
2018-05-04T04:59:31.399Z,74.40
2018-05-04T05:01:59.924Z,73.60
2018-05-04T05:04:27.666Z,73.70
2018-05-04T05:06:55.410Z,72.30
2018-05-04T05:09:23.174Z,70.20
2018-05-04T05:11:50.920Z,70.00
2018-05-04T05:14:19.398Z,66.70
2018-05-04T05:16:47.938Z,66.20
2018-05-04T05:19:15.646Z,66.00
2018-05-04T05:21:44.121Z,63.80
2018-05-04T05:24:12.637Z,65.10
2018-05-04T05:26:40.351Z,65.10
2018-05-04T05:29:08.862Z,64.20
2018-05-04T05:31:36.587Z,64.10
2018-05-04T05:34:04.326Z,65.60
2018-05-04T05:36:32.032Z,64.60
2018-05-04T05:38:59.805Z,63.10
2018-05-04T05:41:27.523Z,61.10
2018-05-04T05:43:55.262Z,59.80
2018-05-04T05:46:22.981Z,56.00
2018-05-04T05:48:50.758Z,55.80
2018-05-04T05:51:18.468Z,53.10
2018-05-04T05:53:46.200Z,49.40
2018-05-04T05:56:13.959Z,47.60
2018-05-04T05:58:41.683Z,49.50
2018-05-04T06:01:09.431Z,50.70
2018-05-04T06:03:37.912Z,53.20
2018-05-04T06:06:06.464Z,51.50
2018-05-04T06:08:34.960Z,46.10
2018-05-04T06:11:02.738Z,46.10
2018-05-04T06:13:31.214Z,45.60
2018-05-04T06:15:59.730Z,47.90
2018-05-04T06:18:27.468Z,48.00
2018-05-04T06:20:55.252Z,49.50
2018-05-04T06:23:22.959Z,52.20
2018-05-04T06:25:50.697Z,56.20
2018-05-04T06:28:18.442Z,57.70
2018-05-04T06:30:46.172Z,57.40
2018-05-04T06:33:13.918Z,59.90
2018-05-04T06:35:42.439Z,62.30
2018-05-04T06:38:10.202Z,62.30
2018-05-04T06:40:37.916Z,63.40
2018-05-04T06:43:06.947Z,63.40
2018-05-04T06:45:34.667Z,63.40
2018-05-04T06:48:03.170Z,59.10
2018-05-04T06:50:30.894Z,59.10
2018-05-04T06:52:58.668Z,54.80
2018-05-04T06:55:27.159Z,56.80
2018-05-04T06:57:55.639Z,54.50
2018-05-04T07:00:24.185Z,52.60
2018-05-04T07:02:51.899Z,52.60
2018-05-04T07:05:19.639Z,52.90
2018-05-04T07:07:48.122Z,50.10
2018-05-04T07:10:16.732Z,48.30
2018-05-04T07:12:44.544Z,48.20
2018-05-04T07:15:12.306Z,49.80
2018-05-04T07:17:40.024Z,49.50
2018-05-04T07:20:07.820Z,50.70
2018-05-04T07:22:35.568Z,52.50
2018-05-04T07:25:03.408Z,50.00
2018-05-04T07:27:31.168Z,43.90
2018-05-04T07:29:58.887Z,36.90
2018-05-04T07:32:27.397Z,32.00
2018-05-04T07:34:55.121Z,31.80
2018-05-04T07:37:22.871Z,28.60
2018-05-04T07:39:50.591Z,26.50
2018-05-04T07:42:18.335Z,26.70
2018-05-04T07:44:46.058Z,28.30
2018-05-04T07:47:13.832Z,26.60
2018-05-04T07:49:42.327Z,28.10
2018-05-04T07:52:10.048Z,28.10
2018-05-04T07:54:37.806Z,28.60
2018-05-04T07:57:05.518Z,28.30
2018-05-04T07:59:33.354Z,25.20
2018-05-04T08:02:01.069Z,24.20
2018-05-04T08:04:28.819Z,22.50
2018-05-04T08:06:56.538Z,20.60
2018-05-04T08:09:25.070Z,19.60
2018-05-04T08:11:52.803Z,19.00
2018-05-04T08:14:20.576Z,19.20
2018-05-04T08:16:48.292Z,19.30
2018-05-04T08:23:19.103Z,22.70
2018-05-04T08:25:46.878Z,21.90
2018-05-04T08:28:14.659Z,20.70
2018-05-04T08:31:14.307Z,19.40
2018-05-04T08:33:42.153Z,19.90
2018-05-04T08:36:10.690Z,20.30
2018-05-04T08:38:38.418Z,20.30
2018-05-04T08:41:06.877Z,20.90
2018-05-04T08:43:35.350Z,22.40
2018-05-04T08:46:03.059Z,22.40
2018-05-04T08:48:30.805Z,22.00
2018-05-04T08:50:58.542Z,22.30
2018-05-04T08:53:27.066Z,26.20
2018-05-04T08:55:54.782Z,26.20
2018-05-04T08:58:23.283Z,24.50
2018-05-04T09:00:50.996Z,24.40
2018-05-04T09:03:18.751Z,24.10
2018-05-04T09:05:46.472Z,24.20
2018-05-04T09:08:14.214Z,22.90
2018-05-04T09:10:42.695Z,26.40
2018-05-04T09:13:11.251Z,25.00
2018-05-04T09:15:38.966Z,25.00
2018-05-04T09:18:06.676Z,23.60
2018-05-04T09:20:34.415Z,23.60
2018-05-04T09:23:02.131Z,23.90
2018-05-04T09:25:29.888Z,25.80
2018-05-04T09:27:57.601Z,28.70
2018-05-04T09:30:25.389Z,31.20
2018-05-04T09:32:53.923Z,35.50
2018-05-04T09:35:21.670Z,35.50
2018-05-04T09:37:49.382Z,38.20
2018-05-04T09:40:17.134Z,39.10
2018-05-04T09:42:44.867Z,39.30
2018-05-04T09:45:12.647Z,38.50
2018-05-04T09:47:40.369Z,38.10
2018-05-04T09:50:08.085Z,37.40
2018-05-04T09:52:35.826Z,35.70
2018-05-04T09:55:03.560Z,36.30
2018-05-04T09:57:31.324Z,36.70
2018-05-04T09:59:59.051Z,36.90
2018-05-04T10:02:27.574Z,38.00
2018-05-04T10:04:55.297Z,38.10
2018-05-04T10:07:23.043Z,37.80
2018-05-04T10:09:51.532Z,40.30
2018-05-04T10:12:20.011Z,41.00
2018-05-04T10:14:48.533Z,41.00
2018-05-04T10:17:16.286Z,41.10
2018-05-04T10:19:44.026Z,41.60
2018-05-04T10:22:11.738Z,41.40
2018-05-04T10:24:39.478Z,41.70
2018-05-04T10:27:07.200Z,41.60
2018-05-04T10:29:34.950Z,42.90
2018-05-04T10:32:03.443Z,43.80
2018-05-04T10:34:31.216Z,43.80
2018-05-04T10:36:58.943Z,42.90
2018-05-04T10:39:26.669Z,43.00
2018-05-04T10:41:54.418Z,43.20
2018-05-04T10:44:22.135Z,45.40
2018-05-04T10:46:50.660Z,43.00
2018-05-04T10:49:29.026Z,43.00
2018-05-04T10:51:56.781Z,41.10
2018-05-04T10:54:24.503Z,42.50
2018-05-04T10:56:52.283Z,41.40
2018-05-04T10:59:19.996Z,42.70
2018-05-04T11:01:47.751Z,43.60
2018-05-04T11:04:15.472Z,42.30
2018-05-04T11:06:43.248Z,42.60
2018-05-04T11:09:11.746Z,42.90
2018-05-04T11:11:39.465Z,42.70
2018-05-04T11:14:07.220Z,43.50
2018-05-04T11:16:34.956Z,41.20
2018-05-04T11:19:02.704Z,42.10
2018-05-04T11:21:30.415Z,42.10
2018-05-04T11:23:58.159Z,42.70
2018-05-04T11:26:25.866Z,42.80
2018-05-04T11:28:54.392Z,41.50
2018-05-04T11:31:22.123Z,41.40
2018-05-04T11:33:49.872Z,40.50
2018-05-04T11:36:18.363Z,39.50
2018-05-04T11:38:46.154Z,40.10
2018-05-04T11:41:14.700Z,39.20
2018-05-04T11:43:42.431Z,39.20
2018-05-04T11:46:10.968Z,39.70
2018-05-04T11:48:39.635Z,39.70
2018-05-04T11:51:07.419Z,39.80
2018-05-04T11:53:35.135Z,40.10
2018-05-04T11:56:03.667Z,39.50
2018-05-04T11:58:31.374Z,39.50
2018-05-04T12:00:59.140Z,37.80
2018-05-04T12:03:27.622Z,39.50
2018-05-04T12:05:55.399Z,39.50
2018-05-04T12:08:23.131Z,40.40
2018-05-04T12:10:51.688Z,42.00
2018-05-04T12:13:19.507Z,41.90
2018-05-04T12:15:47.250Z,42.30
2018-05-04T12:18:15.783Z,42.90
2018-05-04T12:20:43.545Z,42.80
2018-05-04T12:23:11.312Z,40.60
2018-05-04T12:25:39.025Z,42.10
2018-05-04T12:28:06.780Z,41.00
2018-05-04T12:30:34.497Z,40.20
2018-05-04T12:33:02.262Z,41.90
2018-05-04T12:35:29.988Z,41.80
2018-05-04T12:37:57.750Z,40.90
2018-05-04T12:40:25.466Z,40.20
2018-05-04T12:42:53.201Z,41.20
2018-05-04T12:45:20.950Z,40.90
2018-05-04T12:47:48.692Z,39.50
2018-05-04T12:50:16.487Z,39.30
2018-05-04T12:52:44.201Z,39.30
2018-05-04T12:55:11.947Z,39.90
2018-05-04T12:57:39.697Z,39.20
2018-05-04T13:00:08.222Z,40.00
2018-05-04T13:02:35.944Z,40.00
2018-05-04T13:05:04.467Z,38.80
2018-05-04T13:07:32.186Z,38.80
2018-05-04T13:10:00.664Z,39.20
2018-05-04T13:12:29.175Z,38.80
2018-05-04T13:14:56.885Z,38.70
2018-05-04T13:17:24.696Z,37.20
2018-05-04T13:19:52.406Z,38.30
2018-05-04T13:22:20.164Z,38.30
2018-05-04T13:24:47.898Z,39.10
2018-05-04T13:27:15.638Z,38.10
2018-05-04T13:29:43.362Z,39.30
2018-05-04T13:32:11.883Z,38.40
2018-05-04T13:34:39.620Z,38.40
2018-05-04T13:37:08.143Z,37.70
2018-05-04T13:39:35.869Z,37.70
2018-05-04T13:42:03.591Z,38.00
2018-05-04T13:44:31.390Z,39.00
2018-05-04T13:46:59.125Z,39.00
2018-05-04T13:49:27.483Z,38.30
2018-05-04T13:51:55.207Z,38.70
2018-05-04T13:54:23.011Z,39.00
2018-05-04T13:56:50.737Z,38.30
2018-05-04T13:59:18.483Z,37.50
2018-05-04T14:01:46.243Z,38.00
2018-05-04T14:04:14.014Z,36.90
2018-05-04T14:06:41.758Z,36.90
2018-05-04T14:09:09.479Z,37.30
2018-05-04T14:11:37.210Z,37.10
2018-05-04T14:14:05.746Z,36.50
2018-05-04T14:16:34.263Z,36.70
2018-05-04T14:19:01.975Z,36.70
2018-05-04T14:21:29.750Z,37.10
2018-05-04T14:23:57.470Z,36.70
2018-05-04T14:26:25.227Z,37.10
2018-05-04T14:28:53.002Z,36.80
2018-05-04T14:31:20.761Z,37.80
2018-05-04T14:33:48.482Z,36.20
2018-05-04T14:36:16.193Z,35.30
2018-05-04T14:38:43.931Z,36.10
2018-05-04T14:41:11.656Z,35.80
2018-05-04T14:43:39.406Z,35.40
2018-05-04T14:46:07.875Z,34.50
2018-05-04T14:48:37.229Z,35.30
2018-05-04T14:51:04.959Z,35.20
2018-05-04T14:53:32.743Z,34.60
2018-05-04T14:56:00.459Z,34.30
2018-05-04T14:58:28.958Z,34.50
2018-05-04T15:00:56.697Z,34.40
2018-05-04T15:03:25.176Z,33.60
2018-05-04T15:05:53.687Z,32.70
2018-05-04T15:08:23.701Z,32.70
2018-05-04T15:10:51.455Z,32.80
2018-05-04T15:13:19.170Z,32.60
2018-05-04T15:15:46.933Z,32.80
2018-05-04T15:18:14.657Z,32.30
2018-05-04T15:20:43.326Z,32.10
2018-05-04T15:23:11.052Z,31.40
2018-05-04T15:25:38.766Z,31.90
2018-05-04T15:28:06.649Z,32.10
2018-05-04T15:30:34.383Z,30.80
2018-05-04T15:33:02.128Z,30.00
2018-05-04T15:35:29.846Z,30.70
2018-05-04T15:37:57.592Z,30.50
2018-05-04T15:40:25.385Z,30.00
2018-05-04T15:42:53.094Z,29.70
2018-05-04T15:45:20.847Z,30.00
2018-05-04T15:47:48.560Z,30.40
2018-05-04T15:50:21.935Z,29.90
2018-05-04T15:52:49.671Z,30.20
2018-05-04T15:55:17.433Z,30.50
2018-05-04T15:57:45.180Z,29.70
2018-05-04T16:00:12.924Z,29.60
2018-05-04T16:02:40.647Z,29.60
2018-05-04T16:05:08.408Z,29.80
2018-05-04T16:07:36.127Z,29.60
2018-05-04T16:10:03.859Z,29.60
2018-05-04T16:12:32.372Z,29.00
2018-05-04T16:15:00.091Z,28.90
2018-05-04T16:17:28.616Z,29.10
2018-05-04T16:19:56.364Z,29.00
2018-05-04T16:22:24.168Z,28.30
2018-05-04T16:24:52.031Z,28.60
2018-05-04T16:27:19.895Z,29.30
2018-05-04T16:29:47.757Z,28.60
2018-05-04T16:32:21.274Z,29.30
2018-05-04T16:34:49.027Z,29.00
2018-05-04T16:37:17.071Z,29.00
2018-05-04T16:39:45.571Z,28.60
2018-05-04T16:42:13.542Z,28.60
2018-05-04T16:44:41.398Z,29.10
2018-05-04T16:47:14.992Z,29.70
2018-05-04T16:49:42.840Z,28.80
2018-05-04T16:52:10.560Z,28.90
2018-05-04T16:54:39.064Z,29.40
2018-05-04T16:57:06.808Z,29.40
2018-05-04T16:59:34.605Z,29.10
2018-05-04T17:02:02.346Z,29.50
2018-05-04T17:04:30.063Z,29.50
2018-05-04T17:06:57.828Z,29.60
2018-05-04T17:09:25.583Z,29.30
2018-05-04T17:11:53.348Z,29.70
2018-05-04T17:14:21.081Z,29.60
2018-05-04T17:16:48.815Z,29.50
2018-05-04T17:19:16.771Z,29.80
2018-05-04T17:21:45.318Z,29.80
2018-05-04T17:24:13.849Z,29.60
2018-05-04T17:26:41.618Z,29.60
2018-05-04T17:29:09.368Z,29.90
2018-05-04T17:31:37.146Z,29.80
2018-05-04T17:34:04.896Z,30.10
2018-05-04T17:36:32.737Z,30.20
2018-05-04T17:39:00.571Z,30.00
2018-05-04T17:41:28.320Z,30.30
2018-05-04T17:43:56.077Z,30.60
2018-05-04T17:46:23.798Z,30.80
2018-05-04T17:48:51.576Z,30.70
2018-05-04T17:51:19.321Z,30.80
2018-05-04T17:53:47.073Z,31.50
2018-05-04T17:56:14.805Z,31.40
2018-05-04T17:58:42.664Z,31.60
2018-05-04T18:01:16.608Z,31.40
2018-05-04T18:03:44.391Z,31.90
2018-05-04T18:06:12.267Z,32.10
2018-05-04T18:08:41.165Z,32.60
2018-05-04T18:11:09.517Z,32.90
2018-05-04T18:13:37.404Z,32.70
2018-05-04T18:16:05.345Z,33.00
2018-05-04T18:18:33.922Z,33.20
2018-05-04T18:21:01.803Z,32.80
2018-05-04T18:23:31.012Z,33.10
2018-05-04T18:25:59.702Z,33.30
2018-05-04T18:28:28.381Z,33.40
2018-05-04T18:30:56.148Z,33.40
2018-05-04T18:33:23.969Z,33.80
2018-05-04T18:35:51.769Z,33.80
2018-05-04T18:38:33.129Z,34.40
2018-05-04T18:41:00.898Z,34.20
2018-05-04T18:43:28.670Z,34.40
2018-05-04T18:45:56.484Z,34.50
2018-05-04T18:48:25.125Z,34.50
2018-05-04T18:50:52.996Z,34.50
2018-05-04T18:53:20.746Z,35.10
2018-05-04T18:55:48.521Z,35.50
2018-05-04T18:58:16.373Z,35.40
2018-05-04T19:00:44.206Z,35.50
2018-05-04T19:03:17.846Z,35.50
2018-05-04T19:05:45.706Z,35.40
2018-05-04T19:08:13.574Z,35.80
2018-05-04T19:10:41.433Z,36.30
2018-05-04T19:13:09.301Z,36.10
2018-05-04T19:15:37.151Z,36.20
2018-05-04T19:18:04.954Z,36.20
2018-05-04T19:20:33.498Z,36.80
2018-05-04T19:23:01.976Z,36.80
2018-05-04T19:25:30.430Z,36.80
2018-05-04T19:27:58.267Z,37.20
2018-05-04T19:30:26.175Z,37.30
2018-05-04T19:32:54.045Z,37.50
2018-05-04T19:35:21.867Z,38.00
2018-05-04T19:37:49.597Z,38.00
2018-05-04T19:40:18.122Z,38.70
2018-05-04T19:42:45.955Z,38.70
2018-05-04T19:45:14.476Z,39.20
2018-05-04T19:47:42.205Z,39.30
2018-05-04T19:50:09.943Z,39.70
2018-05-04T19:52:38.421Z,40.10
2018-05-04T19:55:06.963Z,40.20
2018-05-04T19:57:34.836Z,40.30
2018-05-04T20:00:02.633Z,40.70
2018-05-04T20:02:30.499Z,40.90
2018-05-04T20:04:59.042Z,41.60
2018-05-04T20:07:26.879Z,41.60
2018-05-04T20:09:55.794Z,41.70
2018-05-04T20:12:23.575Z,41.80
2018-05-04T20:14:53.251Z,42.20
2018-05-04T20:17:21.029Z,42.80
2018-05-04T20:19:48.894Z,43.20
2018-05-04T20:22:16.688Z,43.10
2018-05-04T20:24:45.336Z,43.80
2018-05-04T20:27:13.252Z,43.80
2018-05-04T20:29:42.036Z,44.60
2018-05-04T20:32:11.676Z,44.50
2018-05-04T20:34:39.524Z,44.50
2018-05-04T20:37:07.243Z,45.00
2018-05-04T20:39:35.081Z,45.50
2018-05-04T20:42:02.830Z,45.60
2018-05-04T20:44:31.338Z,46.00
2018-05-04T20:46:59.051Z,46.00
2018-05-04T20:49:26.811Z,46.00
2018-05-04T20:51:54.620Z,46.60
2018-05-04T20:54:22.382Z,47.00
2018-05-04T20:56:50.107Z,47.10
2018-05-04T20:59:17.815Z,47.40
2018-05-04T21:01:45.578Z,47.30
2018-05-04T21:04:14.094Z,48.90
2018-05-04T21:06:41.863Z,48.80
2018-05-04T21:09:09.869Z,49.10
2018-05-04T21:11:37.631Z,49.20
2018-05-04T21:14:06.282Z,50.00
2018-05-04T21:16:34.037Z,50.00
2018-05-04T21:19:01.885Z,50.40
2018-05-04T21:21:30.410Z,51.00
2018-05-04T21:23:58.378Z,52.00
2018-05-04T21:26:26.183Z,52.60
2018-05-04T21:28:54.823Z,53.30
2018-05-04T21:31:22.681Z,53.30
2018-05-04T21:33:50.471Z,53.70
2018-05-04T21:36:18.996Z,54.10
2018-05-04T21:38:46.820Z,54.10
2018-05-04T21:41:14.809Z,54.80
2018-05-04T21:43:42.622Z,55.20
2018-05-04T21:46:12.667Z,55.90
2018-05-04T21:48:41.990Z,54.80
2018-05-04T21:51:09.751Z,54.80
2018-05-04T21:53:40.149Z,56.40
2018-05-04T21:56:09.007Z,55.50
2018-05-04T21:58:37.487Z,56.60
2018-05-04T22:01:05.349Z,56.80
2018-05-04T22:03:34.107Z,56.60
2018-05-04T22:06:03.334Z,57.40
2018-05-04T22:08:31.068Z,57.40
2018-05-04T22:10:58.807Z,57.40
2018-05-04T22:13:26.519Z,58.10
2018-05-04T22:15:54.290Z,58.40
2018-05-04T22:18:22.005Z,57.80
2018-05-04T22:20:49.734Z,58.70
2018-05-04T22:23:18.234Z,58.10
2018-05-04T22:25:45.984Z,58.10
2018-05-04T22:28:13.738Z,58.90
2018-05-04T22:30:42.229Z,58.90
2018-05-04T22:33:10.045Z,58.90
2018-05-04T22:35:37.777Z,58.70
2018-05-04T22:38:05.562Z,59.50
2018-05-04T22:40:33.427Z,59.20
2018-05-04T22:43:01.214Z,59.50
2018-05-04T22:45:29.872Z,61.20
2018-05-04T22:47:57.633Z,61.20
2018-05-04T22:50:25.507Z,62.40
2018-05-04T22:52:53.361Z,62.80
2018-05-04T22:55:21.227Z,62.80
2018-05-04T22:57:48.947Z,63.50
2018-05-04T23:00:16.711Z,63.90
2018-05-04T23:02:44.432Z,64.00
2018-05-04T23:05:13.410Z,65.40
2018-05-04T23:07:41.877Z,65.70
2018-05-04T23:10:09.659Z,65.70
2018-05-04T23:12:37.616Z,66.20
2018-05-04T23:15:05.339Z,68.10
2018-05-04T23:17:33.090Z,68.00
2018-05-04T23:20:00.894Z,67.40
2018-05-04T23:22:29.578Z,67.40
2018-05-04T23:24:57.444Z,67.40
2018-05-04T23:27:27.083Z,67.40
2018-05-04T23:29:54.843Z,69.60
2018-05-04T23:32:23.504Z,71.40
2018-05-04T23:34:52.028Z,70.90
2018-05-04T23:37:19.834Z,70.90
2018-05-04T23:39:47.697Z,70.50
2018-05-04T23:42:15.411Z,69.80
2018-05-04T23:44:43.143Z,70.10
2018-05-04T23:47:11.695Z,70.60
2018-05-04T23:49:39.439Z,70.50
2018-05-04T23:52:07.182Z,72.00
2018-05-04T23:54:34.943Z,72.60
2018-05-04T23:57:02.676Z,73.30
2018-05-04T23:59:31.190Z,75.90
